sensor_id;sensor_type;location;lat;lon;timestamp;P1;durP1;ratioP1;P2;durP2;ratioP2
76131;SDS011;64877;50.994;13.650;2023-06-14T00:00:12;3.28;;;1.92;;
76131;SDS011;64877;50.994;13.650;2023-06-14T00:02:39;2.45;;;1.52;;
76131;SDS011;64877;50.994;13.650;2023-06-14T00:05:05;4.47;;;2.20;;
76131;SDS011;64877;50.994;13.650;2023-06-14T00:07:40;3.90;;;1.77;;
76131;SDS011;64877;50.994;13.650;2023-06-14T00:10:10;4.40;;;2.08;;
76131;SDS011;64877;50.994;13.650;2023-06-14T00:12:36;4.15;;;2.20;;
76131;SDS011;64877;50.994;13.650;2023-06-14T00:15:02;4.28;;;1.98;;
76131;SDS011;64877;50.994;13.650;2023-06-14T00:17:28;5.28;;;2.03;;
76131;SDS011;64877;50.994;13.650;2023-06-14T00:19:55;6.72;;;2.00;;
76131;SDS011;64877;50.994;13.650;2023-06-14T00:22:22;3.55;;;2.13;;
76131;SDS011;64877;50.994;13.650;2023-06-14T00:27:14;4.18;;;2.30;;
76131;SDS011;64877;50.994;13.650;2023-06-14T00:29:40;5.60;;;2.13;;
76131;SDS011;64877;50.994;13.650;2023-06-14T00:32:05;5.60;;;2.33;;
76131;SDS011;64877;50.994;13.650;2023-06-14T00:34:31;3.83;;;2.30;;
76131;SDS011;64877;50.994;13.650;2023-06-14T00:36:56;4.78;;;2.47;;
76131;SDS011;64877;50.994;13.650;2023-06-14T00:39:22;3.80;;;2.20;;
76131;SDS011;64877;50.994;13.650;2023-06-14T00:41:47;5.57;;;2.30;;
76131;SDS011;64877;50.994;13.650;2023-06-14T00:44:13;3.60;;;2.00;;
76131;SDS011;64877;50.994;13.650;2023-06-14T00:46:41;3.10;;;2.00;;
76131;SDS011;64877;50.994;13.650;2023-06-14T00:49:07;3.50;;;2.00;;
76131;SDS011;64877;50.994;13.650;2023-06-14T00:51:34;4.22;;;2.35;;
76131;SDS011;64877;50.994;13.650;2023-06-14T00:53:59;5.43;;;2.30;;
76131;SDS011;64877;50.994;13.650;2023-06-14T00:56:25;5.22;;;2.58;;
76131;SDS011;64877;50.994;13.650;2023-06-14T00:58:52;3.97;;;2.33;;
76131;SDS011;64877;50.994;13.650;2023-06-14T01:01:18;4.18;;;1.92;;
76131;SDS011;64877;50.994;13.650;2023-06-14T01:03:43;4.03;;;2.13;;
76131;SDS011;64877;50.994;13.650;2023-06-14T01:06:12;3.50;;;2.00;;
76131;SDS011;64877;50.994;13.650;2023-06-14T01:08:47;4.72;;;2.33;;
76131;SDS011;64877;50.994;13.650;2023-06-14T01:11:25;3.65;;;2.20;;
76131;SDS011;64877;50.994;13.650;2023-06-14T01:13:56;4.28;;;2.15;;
76131;SDS011;64877;50.994;13.650;2023-06-14T01:16:22;5.03;;;2.17;;
76131;SDS011;64877;50.994;13.650;2023-06-14T01:18:48;5.55;;;2.05;;
76131;SDS011;64877;50.994;13.650;2023-06-14T01:21:24;3.70;;;1.77;;
76131;SDS011;64877;50.994;13.650;2023-06-14T01:23:51;4.88;;;2.20;;
76131;SDS011;64877;50.994;13.650;2023-06-14T01:26:20;3.78;;;1.80;;
76131;SDS011;64877;50.994;13.650;2023-06-14T01:28:49;3.80;;;2.13;;
76131;SDS011;64877;50.994;13.650;2023-06-14T01:31:18;7.05;;;2.13;;
76131;SDS011;64877;50.994;13.650;2023-06-14T01:33:46;4.80;;;2.20;;
76131;SDS011;64877;50.994;13.650;2023-06-14T01:36:14;4.93;;;2.10;;
76131;SDS011;64877;50.994;13.650;2023-06-14T01:38:41;4.38;;;2.03;;
76131;SDS011;64877;50.994;13.650;2023-06-14T01:41:09;7.50;;;2.20;;
76131;SDS011;64877;50.994;13.650;2023-06-14T01:43:35;3.85;;;2.20;;
76131;SDS011;64877;50.994;13.650;2023-06-14T01:46:01;6.22;;;2.10;;
76131;SDS011;64877;50.994;13.650;2023-06-14T01:48:28;4.00;;;2.13;;
76131;SDS011;64877;50.994;13.650;2023-06-14T01:50:53;4.57;;;2.30;;
76131;SDS011;64877;50.994;13.650;2023-06-14T01:53:19;5.65;;;2.05;;
76131;SDS011;64877;50.994;13.650;2023-06-14T01:55:44;8.80;;;1.98;;
76131;SDS011;64877;50.994;13.650;2023-06-14T01:58:13;5.53;;;2.40;;
76131;SDS011;64877;50.994;13.650;2023-06-14T02:00:41;4.32;;;2.40;;
76131;SDS011;64877;50.994;13.650;2023-06-14T02:03:08;6.88;;;2.50;;
76131;SDS011;64877;50.994;13.650;2023-06-14T02:05:34;5.88;;;2.05;;
76131;SDS011;64877;50.994;13.650;2023-06-14T02:07:59;4.60;;;1.77;;
76131;SDS011;64877;50.994;13.650;2023-06-14T02:10:25;4.15;;;1.88;;
76131;SDS011;64877;50.994;13.650;2023-06-14T02:12:50;4.43;;;2.30;;
76131;SDS011;64877;50.994;13.650;2023-06-14T02:15:16;4.70;;;2.20;;
76131;SDS011;64877;50.994;13.650;2023-06-14T02:17:45;3.38;;;1.75;;
76131;SDS011;64877;50.994;13.650;2023-06-14T02:20:12;5.70;;;2.50;;
76131;SDS011;64877;50.994;13.650;2023-06-14T02:22:37;3.53;;;1.98;;
76131;SDS011;64877;50.994;13.650;2023-06-14T02:25:03;3.83;;;2.28;;
76131;SDS011;64877;50.994;13.650;2023-06-14T02:27:29;3.70;;;1.85;;
76131;SDS011;64877;50.994;13.650;2023-06-14T02:29:54;4.38;;;2.00;;
76131;SDS011;64877;50.994;13.650;2023-06-14T02:32:19;3.30;;;1.67;;
76131;SDS011;64877;50.994;13.650;2023-06-14T02:34:45;3.15;;;2.10;;
76131;SDS011;64877;50.994;13.650;2023-06-14T02:37:14;5.32;;;2.15;;
76131;SDS011;64877;50.994;13.650;2023-06-14T02:39:42;5.55;;;2.05;;
76131;SDS011;64877;50.994;13.650;2023-06-14T02:42:08;6.00;;;2.85;;
76131;SDS011;64877;50.994;13.650;2023-06-14T02:44:33;4.72;;;2.28;;
76131;SDS011;64877;50.994;13.650;2023-06-14T02:47:00;4.45;;;2.10;;
76131;SDS011;64877;50.994;13.650;2023-06-14T02:49:25;3.28;;;1.73;;
76131;SDS011;64877;50.994;13.650;2023-06-14T02:51:51;4.25;;;2.10;;
76131;SDS011;64877;50.994;13.650;2023-06-14T02:54:16;5.10;;;2.15;;
76131;SDS011;64877;50.994;13.650;2023-06-14T02:56:42;8.13;;;2.20;;
76131;SDS011;64877;50.994;13.650;2023-06-14T02:59:07;2.80;;;1.80;;
76131;SDS011;64877;50.994;13.650;2023-06-14T03:01:34;5.90;;;1.95;;
76131;SDS011;64877;50.994;13.650;2023-06-14T03:04:00;4.78;;;2.30;;
76131;SDS011;64877;50.994;13.650;2023-06-14T03:06:27;6.65;;;2.70;;
76131;SDS011;64877;50.994;13.650;2023-06-14T03:08:55;6.68;;;2.35;;
76131;SDS011;64877;50.994;13.650;2023-06-14T03:11:24;8.75;;;2.20;;
76131;SDS011;64877;50.994;13.650;2023-06-14T03:13:50;5.60;;;2.17;;
76131;SDS011;64877;50.994;13.650;2023-06-14T03:16:16;7.95;;;2.70;;
76131;SDS011;64877;50.994;13.650;2023-06-14T03:18:44;5.03;;;2.85;;
76131;SDS011;64877;50.994;13.650;2023-06-14T03:21:10;6.30;;;2.42;;
76131;SDS011;64877;50.994;13.650;2023-06-14T03:23:36;4.03;;;2.67;;
76131;SDS011;64877;50.994;13.650;2023-06-14T03:26:01;6.22;;;2.28;;
76131;SDS011;64877;50.994;13.650;2023-06-14T03:28:27;6.40;;;2.50;;
76131;SDS011;64877;50.994;13.650;2023-06-14T03:30:52;4.32;;;2.22;;
76131;SDS011;64877;50.994;13.650;2023-06-14T03:33:17;8.90;;;2.50;;
76131;SDS011;64877;50.994;13.650;2023-06-14T03:35:43;4.97;;;2.08;;
76131;SDS011;64877;50.994;13.650;2023-06-14T03:38:08;4.15;;;2.03;;
76131;SDS011;64877;50.994;13.650;2023-06-14T03:40:34;7.30;;;3.25;;
76131;SDS011;64877;50.994;13.650;2023-06-14T03:42:59;3.97;;;2.38;;
76131;SDS011;64877;50.994;13.650;2023-06-14T03:45:25;7.80;;;2.10;;
76131;SDS011;64877;50.994;13.650;2023-06-14T03:47:50;4.47;;;2.30;;
76131;SDS011;64877;50.994;13.650;2023-06-14T03:50:17;4.10;;;2.15;;
76131;SDS011;64877;50.994;13.650;2023-06-14T03:52:43;5.65;;;2.28;;
76131;SDS011;64877;50.994;13.650;2023-06-14T03:55:09;3.65;;;2.22;;
76131;SDS011;64877;50.994;13.650;2023-06-14T03:57:35;5.07;;;2.30;;
76131;SDS011;64877;50.994;13.650;2023-06-14T04:00:01;4.90;;;2.72;;
76131;SDS011;64877;50.994;13.650;2023-06-14T04:02:26;5.35;;;2.45;;
76131;SDS011;64877;50.994;13.650;2023-06-14T04:04:54;5.10;;;2.72;;
76131;SDS011;64877;50.994;13.650;2023-06-14T04:07:20;3.53;;;2.50;;
76131;SDS011;64877;50.994;13.650;2023-06-14T04:09:46;4.95;;;2.35;;
76131;SDS011;64877;50.994;13.650;2023-06-14T04:12:11;7.80;;;3.03;;
76131;SDS011;64877;50.994;13.650;2023-06-14T04:14:37;6.93;;;2.63;;
76131;SDS011;64877;50.994;13.650;2023-06-14T04:17:04;5.68;;;3.00;;
76131;SDS011;64877;50.994;13.650;2023-06-14T04:19:30;6.15;;;3.00;;
76131;SDS011;64877;50.994;13.650;2023-06-14T04:21:55;5.38;;;2.45;;
76131;SDS011;64877;50.994;13.650;2023-06-14T04:24:21;4.55;;;2.53;;
76131;SDS011;64877;50.994;13.650;2023-06-14T04:26:48;6.43;;;3.03;;
76131;SDS011;64877;50.994;13.650;2023-06-14T04:29:14;5.63;;;2.80;;
76131;SDS011;64877;50.994;13.650;2023-06-14T04:31:41;7.10;;;2.72;;
76131;SDS011;64877;50.994;13.650;2023-06-14T04:34:07;3.90;;;2.72;;
76131;SDS011;64877;50.994;13.650;2023-06-14T04:36:33;4.53;;;3.28;;
76131;SDS011;64877;50.994;13.650;2023-06-14T04:39:06;6.70;;;2.67;;
76131;SDS011;64877;50.994;13.650;2023-06-14T04:41:32;4.95;;;2.90;;
76131;SDS011;64877;50.994;13.650;2023-06-14T04:43:57;5.03;;;3.05;;
76131;SDS011;64877;50.994;13.650;2023-06-14T04:46:26;5.93;;;3.08;;
76131;SDS011;64877;50.994;13.650;2023-06-14T04:48:53;4.63;;;3.25;;
76131;SDS011;64877;50.994;13.650;2023-06-14T04:51:19;4.82;;;2.92;;
76131;SDS011;64877;50.994;13.650;2023-06-14T04:53:46;4.82;;;3.20;;
76131;SDS011;64877;50.994;13.650;2023-06-14T04:56:11;4.53;;;3.15;;
76131;SDS011;64877;50.994;13.650;2023-06-14T04:58:37;7.35;;;3.03;;
76131;SDS011;64877;50.994;13.650;2023-06-14T05:01:03;6.20;;;3.22;;
76131;SDS011;64877;50.994;13.650;2023-06-14T05:03:29;6.05;;;3.08;;
76131;SDS011;64877;50.994;13.650;2023-06-14T05:05:55;6.93;;;3.10;;
76131;SDS011;64877;50.994;13.650;2023-06-14T05:08:21;5.20;;;2.88;;
76131;SDS011;64877;50.994;13.650;2023-06-14T05:10:50;6.18;;;3.00;;
76131;SDS011;64877;50.994;13.650;2023-06-14T05:13:16;6.57;;;2.88;;
76131;SDS011;64877;50.994;13.650;2023-06-14T05:15:42;6.13;;;3.10;;
76131;SDS011;64877;50.994;13.650;2023-06-14T05:18:08;4.45;;;2.80;;
76131;SDS011;64877;50.994;13.650;2023-06-14T05:20:34;5.28;;;3.00;;
76131;SDS011;64877;50.994;13.650;2023-06-14T05:25:27;6.68;;;4.07;;
76131;SDS011;64877;50.994;13.650;2023-06-14T05:27:53;6.20;;;4.10;;
76131;SDS011;64877;50.994;13.650;2023-06-14T05:30:18;6.40;;;3.53;;
76131;SDS011;64877;50.994;13.650;2023-06-14T05:32:44;6.72;;;3.47;;
76131;SDS011;64877;50.994;13.650;2023-06-14T05:35:09;11.57;;;3.30;;
76131;SDS011;64877;50.994;13.650;2023-06-14T05:37:35;4.10;;;3.15;;
76131;SDS011;64877;50.994;13.650;2023-06-14T05:40:01;5.13;;;2.92;;
76131;SDS011;64877;50.994;13.650;2023-06-14T05:42:29;7.28;;;3.15;;
76131;SDS011;64877;50.994;13.650;2023-06-14T05:44:55;9.07;;;3.00;;
76131;SDS011;64877;50.994;13.650;2023-06-14T05:47:20;5.82;;;2.80;;
76131;SDS011;64877;50.994;13.650;2023-06-14T05:49:46;8.23;;;3.08;;
76131;SDS011;64877;50.994;13.650;2023-06-14T05:52:11;5.05;;;3.17;;
76131;SDS011;64877;50.994;13.650;2023-06-14T05:54:38;7.60;;;3.13;;
76131;SDS011;64877;50.994;13.650;2023-06-14T05:57:03;4.35;;;2.80;;
76131;SDS011;64877;50.994;13.650;2023-06-14T05:59:31;4.50;;;2.72;;
76131;SDS011;64877;50.994;13.650;2023-06-14T06:01:56;7.53;;;2.85;;
76131;SDS011;64877;50.994;13.650;2023-06-14T06:04:22;7.25;;;2.75;;
76131;SDS011;64877;50.994;13.650;2023-06-14T06:06:48;5.55;;;2.83;;
76131;SDS011;64877;50.994;13.650;2023-06-14T06:09:13;7.80;;;2.97;;
76131;SDS011;64877;50.994;13.650;2023-06-14T06:11:41;7.03;;;2.92;;
76131;SDS011;64877;50.994;13.650;2023-06-14T06:14:07;5.97;;;2.90;;
76131;SDS011;64877;50.994;13.650;2023-06-14T06:16:32;5.60;;;2.53;;
76131;SDS011;64877;50.994;13.650;2023-06-14T06:18:58;6.07;;;2.70;;
76131;SDS011;64877;50.994;13.650;2023-06-14T06:21:24;5.25;;;2.80;;
76131;SDS011;64877;50.994;13.650;2023-06-14T06:23:49;6.18;;;2.85;;
76131;SDS011;64877;50.994;13.650;2023-06-14T06:26:15;6.75;;;2.75;;
76131;SDS011;64877;50.994;13.650;2023-06-14T06:28:40;5.05;;;2.80;;
76131;SDS011;64877;50.994;13.650;2023-06-14T06:31:06;5.28;;;2.90;;
76131;SDS011;64877;50.994;13.650;2023-06-14T06:33:31;5.60;;;3.10;;
76131;SDS011;64877;50.994;13.650;2023-06-14T06:35:57;5.85;;;2.55;;
76131;SDS011;64877;50.994;13.650;2023-06-14T06:38:22;8.25;;;3.50;;
76131;SDS011;64877;50.994;13.650;2023-06-14T06:40:48;5.55;;;2.78;;
76131;SDS011;64877;50.994;13.650;2023-06-14T06:43:14;7.68;;;2.80;;
76131;SDS011;64877;50.994;13.650;2023-06-14T06:45:42;6.32;;;3.05;;
76131;SDS011;64877;50.994;13.650;2023-06-14T06:48:07;4.95;;;2.63;;
76131;SDS011;64877;50.994;13.650;2023-06-14T06:50:35;5.50;;;2.83;;
76131;SDS011;64877;50.994;13.650;2023-06-14T06:53:00;9.43;;;3.55;;
76131;SDS011;64877;50.994;13.650;2023-06-14T06:55:26;4.35;;;2.80;;
76131;SDS011;64877;50.994;13.650;2023-06-14T06:57:51;5.55;;;2.63;;
76131;SDS011;64877;50.994;13.650;2023-06-14T07:00:18;4.93;;;2.80;;
76131;SDS011;64877;50.994;13.650;2023-06-14T07:02:44;7.18;;;3.15;;
76131;SDS011;64877;50.994;13.650;2023-06-14T07:05:10;3.97;;;2.50;;
76131;SDS011;64877;50.994;13.650;2023-06-14T07:07:36;5.32;;;2.53;;
76131;SDS011;64877;50.994;13.650;2023-06-14T07:10:02;6.05;;;2.85;;
76131;SDS011;64877;50.994;13.650;2023-06-14T07:12:29;4.28;;;2.60;;
76131;SDS011;64877;50.994;13.650;2023-06-14T07:14:56;3.67;;;2.67;;
76131;SDS011;64877;50.994;13.650;2023-06-14T07:17:22;4.50;;;2.63;;
76131;SDS011;64877;50.994;13.650;2023-06-14T07:19:48;5.43;;;2.85;;
76131;SDS011;64877;50.994;13.650;2023-06-14T07:22:13;4.90;;;2.65;;
76131;SDS011;64877;50.994;13.650;2023-06-14T07:24:38;5.20;;;2.53;;
76131;SDS011;64877;50.994;13.650;2023-06-14T07:29:30;4.68;;;2.40;;
76131;SDS011;64877;50.994;13.650;2023-06-14T07:31:56;5.80;;;2.38;;
76131;SDS011;64877;50.994;13.650;2023-06-14T07:34:21;8.68;;;2.50;;
76131;SDS011;64877;50.994;13.650;2023-06-14T07:36:46;3.70;;;2.35;;
76131;SDS011;64877;50.994;13.650;2023-06-14T07:39:12;4.32;;;1.95;;
76131;SDS011;64877;50.994;13.650;2023-06-14T07:41:38;3.92;;;1.85;;
76131;SDS011;64877;50.994;13.650;2023-06-14T07:44:03;4.70;;;2.20;;
76131;SDS011;64877;50.994;13.650;2023-06-14T07:46:28;4.35;;;1.80;;
76131;SDS011;64877;50.994;13.650;2023-06-14T07:48:55;5.40;;;2.17;;
76131;SDS011;64877;50.994;13.650;2023-06-14T07:51:20;5.18;;;2.30;;
76131;SDS011;64877;50.994;13.650;2023-06-14T07:53:48;4.32;;;1.90;;
76131;SDS011;64877;50.994;13.650;2023-06-14T07:56:13;4.72;;;2.05;;
76131;SDS011;64877;50.994;13.650;2023-06-14T07:58:39;4.78;;;2.00;;
76131;SDS011;64877;50.994;13.650;2023-06-14T08:01:04;3.47;;;2.00;;
76131;SDS011;64877;50.994;13.650;2023-06-14T08:03:31;5.25;;;2.08;;
76131;SDS011;64877;50.994;13.650;2023-06-14T08:05:57;4.40;;;2.00;;
76131;SDS011;64877;50.994;13.650;2023-06-14T08:08:23;3.97;;;1.88;;
76131;SDS011;64877;50.994;13.650;2023-06-14T08:10:48;5.40;;;1.95;;
76131;SDS011;64877;50.994;13.650;2023-06-14T08:13:13;5.15;;;2.30;;
76131;SDS011;64877;50.994;13.650;2023-06-14T08:15:39;4.43;;;2.10;;
76131;SDS011;64877;50.994;13.650;2023-06-14T08:18:04;3.97;;;1.77;;
76131;SDS011;64877;50.994;13.650;2023-06-14T08:20:30;7.68;;;2.33;;
76131;SDS011;64877;50.994;13.650;2023-06-14T08:25:22;4.28;;;1.83;;
76131;SDS011;64877;50.994;13.650;2023-06-14T08:27:47;3.50;;;1.73;;
76131;SDS011;64877;50.994;13.650;2023-06-14T08:30:13;6.90;;;1.80;;
76131;SDS011;64877;50.994;13.650;2023-06-14T08:32:39;2.92;;;1.70;;
76131;SDS011;64877;50.994;13.650;2023-06-14T08:35:04;2.80;;;1.45;;
76131;SDS011;64877;50.994;13.650;2023-06-14T08:37:30;2.88;;;1.58;;
76131;SDS011;64877;50.994;13.650;2023-06-14T08:39:56;5.75;;;1.73;;
76131;SDS011;64877;50.994;13.650;2023-06-14T08:42:21;2.72;;;1.65;;
76131;SDS011;64877;50.994;13.650;2023-06-14T08:44:49;4.28;;;1.40;;
76131;SDS011;64877;50.994;13.650;2023-06-14T08:47:15;3.42;;;1.50;;
76131;SDS011;64877;50.994;13.650;2023-06-14T08:49:43;2.83;;;1.38;;
76131;SDS011;64877;50.994;13.650;2023-06-14T08:52:13;2.80;;;1.40;;
76131;SDS011;64877;50.994;13.650;2023-06-14T08:54:44;3.30;;;1.70;;
76131;SDS011;64877;50.994;13.650;2023-06-14T08:57:11;3.75;;;1.80;;
76131;SDS011;64877;50.994;13.650;2023-06-14T08:59:41;4.65;;;1.70;;
76131;SDS011;64877;50.994;13.650;2023-06-14T09:02:14;4.43;;;2.00;;
76131;SDS011;64877;50.994;13.650;2023-06-14T09:04:43;9.35;;;1.90;;
76131;SDS011;64877;50.994;13.650;2023-06-14T09:07:09;4.03;;;1.63;;
76131;SDS011;64877;50.994;13.650;2023-06-14T09:09:38;5.45;;;1.30;;
76131;SDS011;64877;50.994;13.650;2023-06-14T09:12:06;5.80;;;1.98;;
76131;SDS011;64877;50.994;13.650;2023-06-14T09:14:35;4.13;;;1.60;;
76131;SDS011;64877;50.994;13.650;2023-06-14T09:17:03;7.07;;;1.83;;
76131;SDS011;64877;50.994;13.650;2023-06-14T09:19:29;2.60;;;1.60;;
76131;SDS011;64877;50.994;13.650;2023-06-14T09:21:54;1.90;;;1.45;;
76131;SDS011;64877;50.994;13.650;2023-06-14T09:24:20;4.35;;;1.83;;
76131;SDS011;64877;50.994;13.650;2023-06-14T09:26:50;5.20;;;1.60;;
76131;SDS011;64877;50.994;13.650;2023-06-14T09:29:16;3.13;;;1.60;;
76131;SDS011;64877;50.994;13.650;2023-06-14T09:31:43;3.72;;;1.60;;
76131;SDS011;64877;50.994;13.650;2023-06-14T09:34:10;5.32;;;1.92;;
76131;SDS011;64877;50.994;13.650;2023-06-14T09:36:36;3.72;;;2.13;;
76131;SDS011;64877;50.994;13.650;2023-06-14T09:39:05;3.97;;;1.98;;
76131;SDS011;64877;50.994;13.650;2023-06-14T09:41:31;4.82;;;1.80;;
76131;SDS011;64877;50.994;13.650;2023-06-14T09:44:01;3.72;;;1.80;;
76131;SDS011;64877;50.994;13.650;2023-06-14T09:46:31;4.55;;;1.98;;
76131;SDS011;64877;50.994;13.650;2023-06-14T09:48:57;3.33;;;2.22;;
76131;SDS011;64877;50.994;13.650;2023-06-14T09:51:23;3.95;;;1.90;;
76131;SDS011;64877;50.994;13.650;2023-06-14T09:53:49;5.53;;;1.88;;
76131;SDS011;64877;50.994;13.650;2023-06-14T09:56:28;4.03;;;2.20;;
76131;SDS011;64877;50.994;13.650;2023-06-14T09:58:58;3.65;;;1.90;;
76131;SDS011;64877;50.994;13.650;2023-06-14T10:01:25;4.72;;;2.00;;
76131;SDS011;64877;50.994;13.650;2023-06-14T10:03:55;4.70;;;1.88;;
76131;SDS011;64877;50.994;13.650;2023-06-14T10:06:29;3.97;;;2.45;;
76131;SDS011;64877;50.994;13.650;2023-06-14T10:08:58;3.55;;;2.22;;
76131;SDS011;64877;50.994;13.650;2023-06-14T10:11:25;5.80;;;2.50;;
76131;SDS011;64877;50.994;13.650;2023-06-14T10:13:52;4.93;;;2.33;;
76131;SDS011;64877;50.994;13.650;2023-06-14T10:16:33;4.70;;;2.35;;
76131;SDS011;64877;50.994;13.650;2023-06-14T10:22:17;4.45;;;1.85;;
76131;SDS011;64877;50.994;13.650;2023-06-14T10:24:48;3.20;;;2.15;;
76131;SDS011;64877;50.994;13.650;2023-06-14T10:27:15;4.88;;;2.70;;
76131;SDS011;64877;50.994;13.650;2023-06-14T10:32:21;5.40;;;2.33;;
76131;SDS011;64877;50.994;13.650;2023-06-14T10:35:01;3.45;;;2.00;;
76131;SDS011;64877;50.994;13.650;2023-06-14T10:37:30;6.95;;;2.47;;
76131;SDS011;64877;50.994;13.650;2023-06-14T10:39:56;6.68;;;2.30;;
76131;SDS011;64877;50.994;13.650;2023-06-14T10:42:23;3.40;;;2.30;;
76131;SDS011;64877;50.994;13.650;2023-06-14T10:44:54;7.82;;;2.50;;
76131;SDS011;64877;50.994;13.650;2023-06-14T10:47:30;3.15;;;2.03;;
76131;SDS011;64877;50.994;13.650;2023-06-14T10:52:32;2.88;;;1.83;;
76131;SDS011;64877;50.994;13.650;2023-06-14T10:55:10;2.33;;;1.50;;
76131;SDS011;64877;50.994;13.650;2023-06-14T10:57:36;3.15;;;1.88;;
76131;SDS011;64877;50.994;13.650;2023-06-14T11:00:24;3.42;;;1.70;;
76131;SDS011;64877;50.994;13.650;2023-06-14T11:06:11;4.57;;;2.13;;
76131;SDS011;64877;50.994;13.650;2023-06-14T11:11:11;3.38;;;2.03;;
76131;SDS011;64877;50.994;13.650;2023-06-14T11:13:38;5.05;;;2.10;;
76131;SDS011;64877;50.994;13.650;2023-06-14T11:16:14;3.28;;;1.77;;
76131;SDS011;64877;50.994;13.650;2023-06-14T11:18:44;3.83;;;1.67;;
76131;SDS011;64877;50.994;13.650;2023-06-14T11:21:10;4.55;;;2.22;;
76131;SDS011;64877;50.994;13.650;2023-06-14T11:23:36;4.65;;;2.20;;
76131;SDS011;64877;50.994;13.650;2023-06-14T11:26:02;3.25;;;1.88;;
76131;SDS011;64877;50.994;13.650;2023-06-14T11:28:36;5.03;;;2.20;;
76131;SDS011;64877;50.994;13.650;2023-06-14T11:31:03;3.40;;;2.20;;
76131;SDS011;64877;50.994;13.650;2023-06-14T11:33:28;3.55;;;1.80;;
76131;SDS011;64877;50.994;13.650;2023-06-14T11:35:54;7.28;;;2.28;;
76131;SDS011;64877;50.994;13.650;2023-06-14T11:38:19;2.97;;;1.60;;
76131;SDS011;64877;50.994;13.650;2023-06-14T11:40:44;5.07;;;2.22;;
76131;SDS011;64877;50.994;13.650;2023-06-14T11:43:10;5.07;;;1.85;;
76131;SDS011;64877;50.994;13.650;2023-06-14T11:45:38;2.53;;;1.70;;
76131;SDS011;64877;50.994;13.650;2023-06-14T11:48:04;3.40;;;2.13;;
76131;SDS011;64877;50.994;13.650;2023-06-14T11:50:29;4.95;;;2.42;;
76131;SDS011;64877;50.994;13.650;2023-06-14T11:52:55;6.28;;;2.00;;
76131;SDS011;64877;50.994;13.650;2023-06-14T11:55:22;4.15;;;2.55;;
76131;SDS011;64877;50.994;13.650;2023-06-14T11:57:48;5.07;;;2.25;;
76131;SDS011;64877;50.994;13.650;2023-06-14T12:00:14;3.70;;;2.50;;
76131;SDS011;64877;50.994;13.650;2023-06-14T12:02:40;5.00;;;2.22;;
76131;SDS011;64877;50.994;13.650;2023-06-14T12:05:06;4.88;;;2.70;;
76131;SDS011;64877;50.994;13.650;2023-06-14T12:07:38;4.63;;;2.30;;
76131;SDS011;64877;50.994;13.650;2023-06-14T12:10:09;4.32;;;2.50;;
76131;SDS011;64877;50.994;13.650;2023-06-14T12:12:38;6.60;;;2.70;;
76131;SDS011;64877;50.994;13.650;2023-06-14T12:15:05;4.13;;;2.22;;
76131;SDS011;64877;50.994;13.650;2023-06-14T12:17:33;3.33;;;2.10;;
76131;SDS011;64877;50.994;13.650;2023-06-14T12:20:04;3.55;;;2.13;;
76131;SDS011;64877;50.994;13.650;2023-06-14T12:22:38;2.92;;;2.03;;
76131;SDS011;64877;50.994;13.650;2023-06-14T12:25:04;4.13;;;2.20;;
76131;SDS011;64877;50.994;13.650;2023-06-14T12:27:30;3.97;;;2.03;;
76131;SDS011;64877;50.994;13.650;2023-06-14T12:30:02;5.72;;;2.20;;
76131;SDS011;64877;50.994;13.650;2023-06-14T12:32:28;6.97;;;2.10;;
76131;SDS011;64877;50.994;13.650;2023-06-14T12:34:54;3.72;;;2.25;;
76131;SDS011;64877;50.994;13.650;2023-06-14T12:37:20;7.80;;;2.30;;
76131;SDS011;64877;50.994;13.650;2023-06-14T12:39:45;5.00;;;1.98;;
76131;SDS011;64877;50.994;13.650;2023-06-14T12:42:11;3.42;;;1.90;;
76131;SDS011;64877;50.994;13.650;2023-06-14T12:44:38;6.18;;;2.45;;
76131;SDS011;64877;50.994;13.650;2023-06-14T12:47:06;6.00;;;2.08;;
76131;SDS011;64877;50.994;13.650;2023-06-14T12:49:34;11.38;;;2.67;;
76131;SDS011;64877;50.994;13.650;2023-06-14T12:51:59;2.90;;;1.92;;
76131;SDS011;64877;50.994;13.650;2023-06-14T12:54:24;5.25;;;2.10;;
76131;SDS011;64877;50.994;13.650;2023-06-14T12:56:52;3.95;;;1.83;;
76131;SDS011;64877;50.994;13.650;2023-06-14T12:59:19;5.78;;;2.55;;
76131;SDS011;64877;50.994;13.650;2023-06-14T13:01:45;3.33;;;2.22;;
76131;SDS011;64877;50.994;13.650;2023-06-14T13:06:37;5.00;;;2.10;;
76131;SDS011;64877;50.994;13.650;2023-06-14T13:09:03;5.80;;;2.22;;
76131;SDS011;64877;50.994;13.650;2023-06-14T13:11:30;4.80;;;2.25;;
76131;SDS011;64877;50.994;13.650;2023-06-14T13:13:55;4.90;;;2.22;;
76131;SDS011;64877;50.994;13.650;2023-06-14T13:16:21;4.65;;;2.88;;
76131;SDS011;64877;50.994;13.650;2023-06-14T13:18:46;5.93;;;2.45;;
76131;SDS011;64877;50.994;13.650;2023-06-14T13:21:12;4.00;;;2.38;;
76131;SDS011;64877;50.994;13.650;2023-06-14T13:23:37;4.03;;;2.30;;
76131;SDS011;64877;50.994;13.650;2023-06-14T13:26:02;4.32;;;2.80;;
76131;SDS011;64877;50.994;13.650;2023-06-14T13:28:28;3.88;;;2.53;;
76131;SDS011;64877;50.994;13.650;2023-06-14T13:30:53;4.18;;;2.75;;
76131;SDS011;64877;50.994;13.650;2023-06-14T13:33:20;9.70;;;2.50;;
76131;SDS011;64877;50.994;13.650;2023-06-14T13:35:46;3.72;;;2.63;;
76131;SDS011;64877;50.994;13.650;2023-06-14T13:38:11;4.63;;;2.25;;
76131;SDS011;64877;50.994;13.650;2023-06-14T13:40:37;5.13;;;2.35;;
76131;SDS011;64877;50.994;13.650;2023-06-14T13:43:02;3.45;;;2.25;;
76131;SDS011;64877;50.994;13.650;2023-06-14T13:45:28;4.55;;;2.22;;
76131;SDS011;64877;50.994;13.650;2023-06-14T13:47:53;4.55;;;2.50;;
76131;SDS011;64877;50.994;13.650;2023-06-14T13:50:19;3.20;;;2.08;;
76131;SDS011;64877;50.994;13.650;2023-06-14T13:52:45;3.15;;;1.80;;
76131;SDS011;64877;50.994;13.650;2023-06-14T13:55:11;4.25;;;2.20;;
76131;SDS011;64877;50.994;13.650;2023-06-14T13:57:36;3.58;;;1.85;;
76131;SDS011;64877;50.994;13.650;2023-06-14T14:00:02;5.90;;;2.22;;
76131;SDS011;64877;50.994;13.650;2023-06-14T14:02:28;8.05;;;2.10;;
76131;SDS011;64877;50.994;13.650;2023-06-14T14:04:54;4.55;;;2.22;;
76131;SDS011;64877;50.994;13.650;2023-06-14T14:07:20;3.85;;;2.15;;
76131;SDS011;64877;50.994;13.650;2023-06-14T14:09:47;5.18;;;1.90;;
76131;SDS011;64877;50.994;13.650;2023-06-14T14:12:13;4.03;;;1.95;;
76131;SDS011;64877;50.994;13.650;2023-06-14T14:14:43;6.03;;;1.90;;
76131;SDS011;64877;50.994;13.650;2023-06-14T14:17:08;6.82;;;1.88;;
76131;SDS011;64877;50.994;13.650;2023-06-14T14:19:34;3.00;;;1.83;;
76131;SDS011;64877;50.994;13.650;2023-06-14T14:21:59;6.75;;;2.88;;
76131;SDS011;64877;50.994;13.650;2023-06-14T14:24:26;3.10;;;2.00;;
76131;SDS011;64877;50.994;13.650;2023-06-14T14:26:51;4.28;;;2.30;;
76131;SDS011;64877;50.994;13.650;2023-06-14T14:31:43;7.18;;;2.00;;
76131;SDS011;64877;50.994;13.650;2023-06-14T14:34:09;4.20;;;1.98;;
76131;SDS011;64877;50.994;13.650;2023-06-14T14:36:34;3.85;;;1.80;;
76131;SDS011;64877;50.994;13.650;2023-06-14T14:39:02;2.72;;;2.08;;
76131;SDS011;64877;50.994;13.650;2023-06-14T14:41:32;3.60;;;2.08;;
76131;SDS011;64877;50.994;13.650;2023-06-14T14:43:57;3.00;;;1.80;;
76131;SDS011;64877;50.994;13.650;2023-06-14T14:46:24;6.60;;;2.08;;
76131;SDS011;64877;50.994;13.650;2023-06-14T14:48:50;3.95;;;1.63;;
76131;SDS011;64877;50.994;13.650;2023-06-14T14:51:15;3.28;;;1.80;;
76131;SDS011;64877;50.994;13.650;2023-06-14T14:53:40;4.43;;;1.83;;
76131;SDS011;64877;50.994;13.650;2023-06-14T14:56:06;6.03;;;1.80;;
76131;SDS011;64877;50.994;13.650;2023-06-14T14:58:31;4.55;;;1.90;;